sensor_id;sensor_type;location;lat;lon;timestamp;temperature;humidity
17954;DHT22;9102;53.548;9.926;2022-10-23T00:00:37;12.80;99.90
17954;DHT22;9102;53.548;9.926;2022-10-23T00:03:04;12.80;99.90
17954;DHT22;9102;53.548;9.926;2022-10-23T00:05:31;12.70;99.90
17954;DHT22;9102;53.548;9.926;2022-10-23T00:07:59;12.70;99.90
17954;DHT22;9102;53.548;9.926;2022-10-23T00:10:27;12.60;99.90
17954;DHT22;9102;53.548;9.926;2022-10-23T00:12:53;12.60;99.90
17954;DHT22;9102;53.548;9.926;2022-10-23T00:15:21;12.60;99.90
17954;DHT22;9102;53.548;9.926;2022-10-23T00:17:49;12.60;99.90
17954;DHT22;9102;53.548;9.926;2022-10-23T00:20:17;12.50;99.90
17954;DHT22;9102;53.548;9.926;2022-10-23T00:22:44;12.50;99.90
17954;DHT22;9102;53.548;9.926;2022-10-23T00:25:12;12.50;99.90
17954;DHT22;9102;53.548;9.926;2022-10-23T00:27:38;12.50;99.90
17954;DHT22;9102;53.548;9.926;2022-10-23T00:30:06;12.50;99.90
17954;DHT22;9102;53.548;9.926;2022-10-23T00:32:33;12.40;99.90
17954;DHT22;9102;53.548;9.926;2022-10-23T00:35:00;12.40;99.90
17954;DHT22;9102;53.548;9.926;2022-10-23T00:37:27;12.40;99.90
17954;DHT22;9102;53.548;9.926;2022-10-23T00:39:53;12.40;99.90
17954;DHT22;9102;53.548;9.926;2022-10-23T00:42:22;12.40;99.90
17954;DHT22;9102;53.548;9.926;2022-10-23T00:45:11;12.40;99.90
17954;DHT22;9102;53.548;9.926;2022-10-23T00:47:39;12.40;99.90
17954;DHT22;9102;53.548;9.926;2022-10-23T00:50:06;12.30;99.90
17954;DHT22;9102;53.548;9.926;2022-10-23T00:52:34;12.30;99.90
17954;DHT22;9102;53.548;9.926;2022-10-23T00:55:03;12.30;99.90
17954;DHT22;9102;53.548;9.926;2022-10-23T00:57:31;12.30;99.90
17954;DHT22;9102;53.548;9.926;2022-10-23T00:59:58;12.30;99.90
17954;DHT22;9102;53.548;9.926;2022-10-23T01:02:25;12.30;99.90
17954;DHT22;9102;53.548;9.926;2022-10-23T01:04:52;12.30;99.90
17954;DHT22;9102;53.548;9.926;2022-10-23T01:07:23;12.30;99.90
17954;DHT22;9102;53.548;9.926;2022-10-23T01:09:57;12.30;99.90
17954;DHT22;9102;53.548;9.926;2022-10-23T01:12:32;12.30;99.90
17954;DHT22;9102;53.548;9.926;2022-10-23T01:15:06;12.30;99.90
17954;DHT22;9102;53.548;9.926;2022-10-23T01:17:41;12.20;99.90
17954;DHT22;9102;53.548;9.926;2022-10-23T01:20:31;12.30;99.90
17954;DHT22;9102;53.548;9.926;2022-10-23T01:23:18;12.30;99.90
17954;DHT22;9102;53.548;9.926;2022-10-23T01:26:00;12.30;99.90
17954;DHT22;9102;53.548;9.926;2022-10-23T01:28:32;12.30;99.90
17954;DHT22;9102;53.548;9.926;2022-10-23T01:31:01;12.30;99.90
17954;DHT22;9102;53.548;9.926;2022-10-23T01:33:33;12.30;99.90
17954;DHT22;9102;53.548;9.926;2022-10-23T01:36:05;12.30;99.90
17954;DHT22;9102;53.548;9.926;2022-10-23T01:38:38;12.30;99.90
17954;DHT22;9102;53.548;9.926;2022-10-23T01:41:10;12.30;99.90
17954;DHT22;9102;53.548;9.926;2022-10-23T01:43:42;12.30;99.90
17954;DHT22;9102;53.548;9.926;2022-10-23T01:46:12;12.30;99.90
17954;DHT22;9102;53.548;9.926;2022-10-23T01:48:43;12.30;99.90
17954;DHT22;9102;53.548;9.926;2022-10-23T01:51:12;12.30;99.90
17954;DHT22;9102;53.548;9.926;2022-10-23T01:53:41;12.20;99.90
17954;DHT22;9102;53.548;9.926;2022-10-23T01:56:12;12.20;99.90
17954;DHT22;9102;53.548;9.926;2022-10-23T01:58:44;12.10;99.90
17954;DHT22;9102;53.548;9.926;2022-10-23T02:01:12;12.10;99.90
17954;DHT22;9102;53.548;9.926;2022-10-23T02:03:42;12.10;99.90
17954;DHT22;9102;53.548;9.926;2022-10-23T02:06:09;12.10;99.90
17954;DHT22;9102;53.548;9.926;2022-10-23T02:08:36;12.10;99.90
17954;DHT22;9102;53.548;9.926;2022-10-23T02:11:06;12.10;99.90
17954;DHT22;9102;53.548;9.926;2022-10-23T02:13:38;12.10;99.90
17954;DHT22;9102;53.548;9.926;2022-10-23T02:16:16;12.10;99.90
17954;DHT22;9102;53.548;9.926;2022-10-23T02:18:49;12.10;99.90
17954;DHT22;9102;53.548;9.926;2022-10-23T02:21:24;12.10;99.90
17954;DHT22;9102;53.548;9.926;2022-10-23T02:23:55;12.10;99.90
17954;DHT22;9102;53.548;9.926;2022-10-23T02:26:26;12.10;99.90
17954;DHT22;9102;53.548;9.926;2022-10-23T02:28:58;12.00;99.90
17954;DHT22;9102;53.548;9.926;2022-10-23T02:31:27;11.90;99.90
17954;DHT22;9102;53.548;9.926;2022-10-23T02:33:54;11.80;99.90
17954;DHT22;9102;53.548;9.926;2022-10-23T02:36:21;11.80;99.90
17954;DHT22;9102;53.548;9.926;2022-10-23T02:38:48;11.80;99.90
17954;DHT22;9102;53.548;9.926;2022-10-23T02:41:21;11.80;99.90
17954;DHT22;9102;53.548;9.926;2022-10-23T02:43:59;11.80;99.90
17954;DHT22;9102;53.548;9.926;2022-10-23T02:46:35;11.70;99.90
17954;DHT22;9102;53.548;9.926;2022-10-23T02:49:10;11.60;99.90
17954;DHT22;9102;53.548;9.926;2022-10-23T02:51:46;11.60;99.90
17954;DHT22;9102;53.548;9.926;2022-10-23T02:54:26;11.60;99.90
17954;DHT22;9102;53.548;9.926;2022-10-23T02:57:00;11.50;99.90
17954;DHT22;9102;53.548;9.926;2022-10-23T02:59:35;11.50;99.90
17954;DHT22;9102;53.548;9.926;2022-10-23T03:02:08;11.50;99.90
17954;DHT22;9102;53.548;9.926;2022-10-23T03:04:41;11.50;99.90
17954;DHT22;9102;53.548;9.926;2022-10-23T03:07:10;11.50;99.90
17954;DHT22;9102;53.548;9.926;2022-10-23T03:09:38;11.50;99.90
17954;DHT22;9102;53.548;9.926;2022-10-23T03:12:05;11.50;99.90
17954;DHT22;9102;53.548;9.926;2022-10-23T03:14:32;11.50;99.90
17954;DHT22;9102;53.548;9.926;2022-10-23T03:16:58;11.50;99.90
17954;DHT22;9102;53.548;9.926;2022-10-23T03:19:26;11.50;99.90
17954;DHT22;9102;53.548;9.926;2022-10-23T03:21:53;11.50;99.90
17954;DHT22;9102;53.548;9.926;2022-10-23T03:24:20;11.50;99.90
17954;DHT22;9102;53.548;9.926;2022-10-23T03:26:47;11.50;99.90
17954;DHT22;9102;53.548;9.926;2022-10-23T03:29:14;11.50;99.90
17954;DHT22;9102;53.548;9.926;2022-10-23T03:31:41;11.50;99.90
17954;DHT22;9102;53.548;9.926;2022-10-23T03:34:07;11.50;99.90
17954;DHT22;9102;53.548;9.926;2022-10-23T03:36:37;11.40;99.90
17954;DHT22;9102;53.548;9.926;2022-10-23T03:39:04;11.40;99.90
17954;DHT22;9102;53.548;9.926;2022-10-23T03:41:31;11.40;99.90
17954;DHT22;9102;53.548;9.926;2022-10-23T03:43:58;11.50;99.90
17954;DHT22;9102;53.548;9.926;2022-10-23T03:46:25;11.40;99.90
17954;DHT22;9102;53.548;9.926;2022-10-23T03:48:51;11.40;99.90
17954;DHT22;9102;53.548;9.926;2022-10-23T03:51:19;11.40;99.90
17954;DHT22;9102;53.548;9.926;2022-10-23T03:53:48;11.30;99.90
17954;DHT22;9102;53.548;9.926;2022-10-23T03:56:14;11.30;99.90
17954;DHT22;9102;53.548;9.926;2022-10-23T03:58:41;11.30;99.90
17954;DHT22;9102;53.548;9.926;2022-10-23T04:01:08;11.30;99.90
17954;DHT22;9102;53.548;9.926;2022-10-23T04:03:35;11.30;99.90
17954;DHT22;9102;53.548;9.926;2022-10-23T04:06:02;11.30;99.90
17954;DHT22;9102;53.548;9.926;2022-10-23T04:08:29;11.40;99.90
17954;DHT22;9102;53.548;9.926;2022-10-23T04:10:57;11.40;99.90
17954;DHT22;9102;53.548;9.926;2022-10-23T04:13:23;11.30;99.90
17954;DHT22;9102;53.548;9.926;2022-10-23T04:15:51;11.30;99.90
17954;DHT22;9102;53.548;9.926;2022-10-23T04:18:18;11.30;99.90
17954;DHT22;9102;53.548;9.926;2022-10-23T04:20:46;11.30;99.90
17954;DHT22;9102;53.548;9.926;2022-10-23T04:23:13;11.30;99.90
17954;DHT22;9102;53.548;9.926;2022-10-23T04:25:40;11.30;99.90
17954;DHT22;9102;53.548;9.926;2022-10-23T04:28:08;11.30;99.90
17954;DHT22;9102;53.548;9.926;2022-10-23T04:30:35;11.30;99.90
17954;DHT22;9102;53.548;9.926;2022-10-23T04:33:02;11.30;99.90
17954;DHT22;9102;53.548;9.926;2022-10-23T04:35:29;11.30;99.90
17954;DHT22;9102;53.548;9.926;2022-10-23T04:37:56;11.20;99.90
17954;DHT22;9102;53.548;9.926;2022-10-23T04:40:23;11.10;99.90
17954;DHT22;9102;53.548;9.926;2022-10-23T04:42:49;11.10;99.90
17954;DHT22;9102;53.548;9.926;2022-10-23T04:45:17;11.10;99.90
17954;DHT22;9102;53.548;9.926;2022-10-23T04:47:44;11.10;99.90
17954;DHT22;9102;53.548;9.926;2022-10-23T04:50:11;11.10;99.90
17954;DHT22;9102;53.548;9.926;2022-10-23T04:52:38;11.10;99.90
17954;DHT22;9102;53.548;9.926;2022-10-23T04:55:06;11.10;99.90
17954;DHT22;9102;53.548;9.926;2022-10-23T04:57:33;11.10;99.90
17954;DHT22;9102;53.548;9.926;2022-10-23T05:00:00;11.10;99.90
17954;DHT22;9102;53.548;9.926;2022-10-23T05:02:28;11.00;99.90
17954;DHT22;9102;53.548;9.926;2022-10-23T05:04:55;11.00;99.90
17954;DHT22;9102;53.548;9.926;2022-10-23T05:07:22;11.00;99.90
17954;DHT22;9102;53.548;9.926;2022-10-23T05:09:49;11.00;99.90
17954;DHT22;9102;53.548;9.926;2022-10-23T05:12:16;10.90;99.90
17954;DHT22;9102;53.548;9.926;2022-10-23T05:14:42;11.00;99.90
17954;DHT22;9102;53.548;9.926;2022-10-23T05:17:12;11.00;99.90
17954;DHT22;9102;53.548;9.926;2022-10-23T05:19:44;11.00;99.90
17954;DHT22;9102;53.548;9.926;2022-10-23T05:22:13;10.90;99.90
17954;DHT22;9102;53.548;9.926;2022-10-23T05:24:40;10.90;99.90
17954;DHT22;9102;53.548;9.926;2022-10-23T05:27:07;10.90;99.90
17954;DHT22;9102;53.548;9.926;2022-10-23T05:29:34;10.90;99.90
17954;DHT22;9102;53.548;9.926;2022-10-23T05:32:03;10.90;99.90
17954;DHT22;9102;53.548;9.926;2022-10-23T05:34:32;11.00;99.90
17954;DHT22;9102;53.548;9.926;2022-10-23T05:37:02;10.90;99.90
17954;DHT22;9102;53.548;9.926;2022-10-23T05:39:31;10.90;99.90
17954;DHT22;9102;53.548;9.926;2022-10-23T05:41:59;10.80;99.90
17954;DHT22;9102;53.548;9.926;2022-10-23T05:44:25;10.90;99.90
17954;DHT22;9102;53.548;9.926;2022-10-23T05:46:52;10.80;99.90
17954;DHT22;9102;53.548;9.926;2022-10-23T05:49:19;10.80;99.90
17954;DHT22;9102;53.548;9.926;2022-10-23T05:51:46;10.80;99.90
17954;DHT22;9102;53.548;9.926;2022-10-23T05:54:14;10.80;99.90
17954;DHT22;9102;53.548;9.926;2022-10-23T05:56:41;10.80;99.90
17954;DHT22;9102;53.548;9.926;2022-10-23T05:59:08;10.70;99.90
17954;DHT22;9102;53.548;9.926;2022-10-23T06:01:35;10.70;99.90
17954;DHT22;9102;53.548;9.926;2022-10-23T06:04:03;10.70;99.90
17954;DHT22;9102;53.548;9.926;2022-10-23T06:06:30;10.70;99.90
17954;DHT22;9102;53.548;9.926;2022-10-23T06:08:57;10.70;99.90
17954;DHT22;9102;53.548;9.926;2022-10-23T06:11:25;10.70;99.90
17954;DHT22;9102;53.548;9.926;2022-10-23T06:13:52;10.60;99.90
17954;DHT22;9102;53.548;9.926;2022-10-23T06:16:20;10.60;99.90
17954;DHT22;9102;53.548;9.926;2022-10-23T06:18:49;10.60;99.90
17954;DHT22;9102;53.548;9.926;2022-10-23T06:21:16;10.60;99.90
17954;DHT22;9102;53.548;9.926;2022-10-23T06:23:44;10.60;99.90
17954;DHT22;9102;53.548;9.926;2022-10-23T06:26:13;10.60;99.90
17954;DHT22;9102;53.548;9.926;2022-10-23T06:28:42;10.40;99.90
17954;DHT22;9102;53.548;9.926;2022-10-23T06:31:11;10.60;99.90
17954;DHT22;9102;53.548;9.926;2022-10-23T06:33:38;10.60;99.90
17954;DHT22;9102;53.548;9.926;2022-10-23T06:36:06;10.60;99.90
17954;DHT22;9102;53.548;9.926;2022-10-23T06:38:34;10.60;99.90
17954;DHT22;9102;53.548;9.926;2022-10-23T06:41:05;10.60;99.90
17954;DHT22;9102;53.548;9.926;2022-10-23T06:43:33;10.50;99.90
17954;DHT22;9102;53.548;9.926;2022-10-23T06:46:02;10.50;99.90
17954;DHT22;9102;53.548;9.926;2022-10-23T06:48:30;10.40;99.90
17954;DHT22;9102;53.548;9.926;2022-10-23T06:50:57;10.40;99.90
17954;DHT22;9102;53.548;9.926;2022-10-23T06:53:24;10.40;99.90
17954;DHT22;9102;53.548;9.926;2022-10-23T06:55:57;10.50;99.90
17954;DHT22;9102;53.548;9.926;2022-10-23T06:58:23;10.40;99.90
17954;DHT22;9102;53.548;9.926;2022-10-23T07:00:50;10.40;99.90
17954;DHT22;9102;53.548;9.926;2022-10-23T07:03:19;10.50;99.90
17954;DHT22;9102;53.548;9.926;2022-10-23T07:05:45;10.40;99.90
17954;DHT22;9102;53.548;9.926;2022-10-23T07:08:13;10.40;99.90
17954;DHT22;9102;53.548;9.926;2022-10-23T07:10:40;10.40;99.90
17954;DHT22;9102;53.548;9.926;2022-10-23T07:13:07;10.40;99.90
17954;DHT22;9102;53.548;9.926;2022-10-23T07:15:35;10.50;99.90
17954;DHT22;9102;53.548;9.926;2022-10-23T07:18:02;10.60;99.90
17954;DHT22;9102;53.548;9.926;2022-10-23T07:20:30;10.60;99.90
17954;DHT22;9102;53.548;9.926;2022-10-23T07:22:57;10.60;99.90
17954;DHT22;9102;53.548;9.926;2022-10-23T07:25:25;10.70;99.90
17954;DHT22;9102;53.548;9.926;2022-10-23T07:27:52;10.70;99.90
17954;DHT22;9102;53.548;9.926;2022-10-23T07:30:19;10.70;99.90
17954;DHT22;9102;53.548;9.926;2022-10-23T07:32:46;10.70;99.90
17954;DHT22;9102;53.548;9.926;2022-10-23T07:35:13;10.70;99.90
17954;DHT22;9102;53.548;9.926;2022-10-23T07:37:41;10.80;99.90
17954;DHT22;9102;53.548;9.926;2022-10-23T07:40:09;10.90;99.90
17954;DHT22;9102;53.548;9.926;2022-10-23T07:42:35;11.00;99.90
17954;DHT22;9102;53.548;9.926;2022-10-23T07:45:04;11.00;99.90
17954;DHT22;9102;53.548;9.926;2022-10-23T07:47:31;11.00;99.90
17954;DHT22;9102;53.548;9.926;2022-10-23T07:49:58;11.00;99.90
17954;DHT22;9102;53.548;9.926;2022-10-23T07:52:26;11.00;99.90
17954;DHT22;9102;53.548;9.926;2022-10-23T07:54:54;11.20;99.90
17954;DHT22;9102;53.548;9.926;2022-10-23T07:57:20;11.20;99.90
17954;DHT22;9102;53.548;9.926;2022-10-23T07:59:48;11.10;99.90
17954;DHT22;9102;53.548;9.926;2022-10-23T08:02:15;11.00;99.90
17954;DHT22;9102;53.548;9.926;2022-10-23T08:04:42;11.00;99.90
17954;DHT22;9102;53.548;9.926;2022-10-23T08:07:08;11.20;99.90
17954;DHT22;9102;53.548;9.926;2022-10-23T08:09:35;11.20;99.90
17954;DHT22;9102;53.548;9.926;2022-10-23T08:12:04;11.40;99.90
17954;DHT22;9102;53.548;9.926;2022-10-23T08:14:31;11.40;99.90
17954;DHT22;9102;53.548;9.926;2022-10-23T08:16:57;11.40;99.90
17954;DHT22;9102;53.548;9.926;2022-10-23T08:19:24;11.60;99.90
17954;DHT22;9102;53.548;9.926;2022-10-23T08:21:51;11.70;99.90
17954;DHT22;9102;53.548;9.926;2022-10-23T08:24:19;11.80;99.90
17954;DHT22;9102;53.548;9.926;2022-10-23T08:26:47;11.90;99.90
17954;DHT22;9102;53.548;9.926;2022-10-23T08:29:16;12.10;99.90
17954;DHT22;9102;53.548;9.926;2022-10-23T08:31:43;12.20;99.90
17954;DHT22;9102;53.548;9.926;2022-10-23T08:34:10;12.30;99.90
17954;DHT22;9102;53.548;9.926;2022-10-23T08:36:36;12.50;99.90
17954;DHT22;9102;53.548;9.926;2022-10-23T08:39:04;12.60;99.90
17954;DHT22;9102;53.548;9.926;2022-10-23T08:41:32;12.70;99.90
17954;DHT22;9102;53.548;9.926;2022-10-23T08:44:05;12.70;99.90
17954;DHT22;9102;53.548;9.926;2022-10-23T08:46:37;12.70;99.90
17954;DHT22;9102;53.548;9.926;2022-10-23T08:49:19;12.80;99.90
17954;DHT22;9102;53.548;9.926;2022-10-23T08:51:50;12.80;99.90
17954;DHT22;9102;53.548;9.926;2022-10-23T08:54:21;13.00;99.90
17954;DHT22;9102;53.548;9.926;2022-10-23T08:56:52;13.00;99.90
17954;DHT22;9102;53.548;9.926;2022-10-23T08:59:26;13.10;99.90
17954;DHT22;9102;53.548;9.926;2022-10-23T09:02:00;13.30;99.90
17954;DHT22;9102;53.548;9.926;2022-10-23T09:04:28;13.30;99.90
17954;DHT22;9102;53.548;9.926;2022-10-23T09:07:01;13.40;99.90
17954;DHT22;9102;53.548;9.926;2022-10-23T09:09:47;13.40;99.90
17954;DHT22;9102;53.548;9.926;2022-10-23T09:12:21;13.50;99.90
17954;DHT22;9102;53.548;9.926;2022-10-23T09:15:13;13.60;99.90
17954;DHT22;9102;53.548;9.926;2022-10-23T09:17:44;13.70;99.90
17954;DHT22;9102;53.548;9.926;2022-10-23T09:20:17;13.80;99.90
17954;DHT22;9102;53.548;9.926;2022-10-23T09:22:45;13.70;99.90
17954;DHT22;9102;53.548;9.926;2022-10-23T09:25:18;13.80;99.90
17954;DHT22;9102;53.548;9.926;2022-10-23T09:27:46;13.80;99.90
17954;DHT22;9102;53.548;9.926;2022-10-23T09:30:24;13.90;99.90
17954;DHT22;9102;53.548;9.926;2022-10-23T09:32:52;14.00;99.90
17954;DHT22;9102;53.548;9.926;2022-10-23T09:35:21;14.00;99.90
17954;DHT22;9102;53.548;9.926;2022-10-23T09:37:48;13.90;99.90
17954;DHT22;9102;53.548;9.926;2022-10-23T09:40:23;13.90;99.90
17954;DHT22;9102;53.548;9.926;2022-10-23T09:42:56;14.00;99.90
17954;DHT22;9102;53.548;9.926;2022-10-23T09:45:26;14.00;99.90
17954;DHT22;9102;53.548;9.926;2022-10-23T09:48:09;13.90;99.90
17954;DHT22;9102;53.548;9.926;2022-10-23T09:50:41;14.00;99.90
17954;DHT22;9102;53.548;9.926;2022-10-23T09:53:15;14.00;99.90
17954;DHT22;9102;53.548;9.926;2022-10-23T09:55:50;14.00;99.90
17954;DHT22;9102;53.548;9.926;2022-10-23T09:58:20;14.10;99.90
17954;DHT22;9102;53.548;9.926;2022-10-23T10:00:47;14.10;99.90
17954;DHT22;9102;53.548;9.926;2022-10-23T10:03:19;14.10;99.90
17954;DHT22;9102;53.548;9.926;2022-10-23T10:05:54;14.00;99.90
17954;DHT22;9102;53.548;9.926;2022-10-23T10:08:26;14.00;99.90
17954;DHT22;9102;53.548;9.926;2022-10-23T10:10:59;14.00;99.90
17954;DHT22;9102;53.548;9.926;2022-10-23T10:13:38;14.30;99.90
17954;DHT22;9102;53.548;9.926;2022-10-23T10:16:15;14.30;99.90
17954;DHT22;9102;53.548;9.926;2022-10-23T10:18:49;14.50;99.90
17954;DHT22;9102;53.548;9.926;2022-10-23T10:21:25;14.50;99.90
17954;DHT22;9102;53.548;9.926;2022-10-23T10:24:10;14.70;99.90
17954;DHT22;9102;53.548;9.926;2022-10-23T10:26:42;14.90;99.90
17954;DHT22;9102;53.548;9.926;2022-10-23T10:29:15;15.00;99.90
17954;DHT22;9102;53.548;9.926;2022-10-23T10:31:51;15.10;99.90
17954;DHT22;9102;53.548;9.926;2022-10-23T10:34:28;15.20;99.90
17954;DHT22;9102;53.548;9.926;2022-10-23T10:37:01;15.10;99.90
17954;DHT22;9102;53.548;9.926;2022-10-23T10:39:39;15.00;99.90
17954;DHT22;9102;53.548;9.926;2022-10-23T10:42:30;14.90;99.90
17954;DHT22;9102;53.548;9.926;2022-10-23T10:45:17;15.00;99.90
17954;DHT22;9102;53.548;9.926;2022-10-23T10:47:51;15.10;99.90
17954;DHT22;9102;53.548;9.926;2022-10-23T10:50:27;15.10;99.90
17954;DHT22;9102;53.548;9.926;2022-10-23T10:53:02;15.20;99.90
17954;DHT22;9102;53.548;9.926;2022-10-23T10:55:36;15.20;99.90
17954;DHT22;9102;53.548;9.926;2022-10-23T10:58:12;15.30;99.90
17954;DHT22;9102;53.548;9.926;2022-10-23T11:00:42;15.30;99.90
17954;DHT22;9102;53.548;9.926;2022-10-23T11:03:21;15.50;99.90
17954;DHT22;9102;53.548;9.926;2022-10-23T11:05:56;15.60;99.90
17954;DHT22;9102;53.548;9.926;2022-10-23T11:08:31;15.50;99.90
17954;DHT22;9102;53.548;9.926;2022-10-23T11:11:03;15.40;99.90
17954;DHT22;9102;53.548;9.926;2022-10-23T11:13:34;15.40;99.90
17954;DHT22;9102;53.548;9.926;2022-10-23T11:16:11;15.40;99.90
17954;DHT22;9102;53.548;9.926;2022-10-23T11:18:41;15.40;99.90
17954;DHT22;9102;53.548;9.926;2022-10-23T11:21:21;15.40;99.90
17954;DHT22;9102;53.548;9.926;2022-10-23T11:27:35;15.60;99.90
17954;DHT22;9102;53.548;9.926;2022-10-23T11:30:20;15.70;99.90
17954;DHT22;9102;53.548;9.926;2022-10-23T11:33:13;15.90;99.90
17954;DHT22;9102;53.548;9.926;2022-10-23T11:35:51;16.00;99.90
17954;DHT22;9102;53.548;9.926;2022-10-23T11:38:25;16.00;99.90
17954;DHT22;9102;53.548;9.926;2022-10-23T11:40:55;16.10;99.90
17954;DHT22;9102;53.548;9.926;2022-10-23T11:43:27;16.20;99.90
17954;DHT22;9102;53.548;9.926;2022-10-23T11:45:55;16.10;99.90
17954;DHT22;9102;53.548;9.926;2022-10-23T11:48:34;16.10;99.90
17954;DHT22;9102;53.548;9.926;2022-10-23T11:51:02;16.10;99.90
17954;DHT22;9102;53.548;9.926;2022-10-23T11:53:39;16.10;99.90
17954;DHT22;9102;53.548;9.926;2022-10-23T11:56:24;16.30;99.90
17954;DHT22;9102;53.548;9.926;2022-10-23T11:58:52;16.40;99.90
17954;DHT22;9102;53.548;9.926;2022-10-23T12:01:29;16.30;99.90
17954;DHT22;9102;53.548;9.926;2022-10-23T12:03:59;16.50;99.90
17954;DHT22;9102;53.548;9.926;2022-10-23T12:06:28;16.50;99.90
17954;DHT22;9102;53.548;9.926;2022-10-23T12:09:03;16.40;99.90
17954;DHT22;9102;53.548;9.926;2022-10-23T12:11:42;16.40;99.90
17954;DHT22;9102;53.548;9.926;2022-10-23T12:14:27;16.30;99.90
17954;DHT22;9102;53.548;9.926;2022-10-23T12:16:55;16.20;99.90
17954;DHT22;9102;53.548;9.926;2022-10-23T12:19:24;16.30;99.90
17954;DHT22;9102;53.548;9.926;2022-10-23T12:21:52;16.10;99.90
17954;DHT22;9102;53.548;9.926;2022-10-23T12:24:41;16.20;99.90
17954;DHT22;9102;53.548;9.926;2022-10-23T12:27:18;16.20;99.90
17954;DHT22;9102;53.548;9.926;2022-10-23T12:30:13;16.10;99.90
17954;DHT22;9102;53.548;9.926;2022-10-23T12:32:56;16.10;99.90
17954;DHT22;9102;53.548;9.926;2022-10-23T12:35:52;16.10;99.90
17954;DHT22;9102;53.548;9.926;2022-10-23T12:38:24;16.10;99.90
17954;DHT22;9102;53.548;9.926;2022-10-23T12:40:55;16.10;99.90
17954;DHT22;9102;53.548;9.926;2022-10-23T12:43:28;16.10;99.90
17954;DHT22;9102;53.548;9.926;2022-10-23T12:45:58;16.10;99.90
17954;DHT22;9102;53.548;9.926;2022-10-23T12:48:26;16.10;99.90
17954;DHT22;9102;53.548;9.926;2022-10-23T12:50:54;16.20;99.90
17954;DHT22;9102;53.548;9.926;2022-10-23T12:53:22;16.20;99.90
17954;DHT22;9102;53.548;9.926;2022-10-23T12:55:55;16.20;99.90
17954;DHT22;9102;53.548;9.926;2022-10-23T12:58:23;16.20;99.90
17954;DHT22;9102;53.548;9.926;2022-10-23T13:00:52;16.30;99.90
17954;DHT22;9102;53.548;9.926;2022-10-23T13:03:20;16.40;99.90
17954;DHT22;9102;53.548;9.926;2022-10-23T13:05:49;16.30;99.90
17954;DHT22;9102;53.548;9.926;2022-10-23T13:08:17;16.40;99.90
17954;DHT22;9102;53.548;9.926;2022-10-23T13:10:44;16.50;99.90
17954;DHT22;9102;53.548;9.926;2022-10-23T13:13:16;16.50;99.90
17954;DHT22;9102;53.548;9.926;2022-10-23T13:15:44;16.50;99.90
17954;DHT22;9102;53.548;9.926;2022-10-23T13:18:13;16.50;99.90
17954;DHT22;9102;53.548;9.926;2022-10-23T13:20:41;16.40;99.90
17954;DHT22;9102;53.548;9.926;2022-10-23T13:23:10;16.40;99.90
17954;DHT22;9102;53.548;9.926;2022-10-23T13:25:41;16.30;99.90
17954;DHT22;9102;53.548;9.926;2022-10-23T13:28:20;16.40;99.90
17954;DHT22;9102;53.548;9.926;2022-10-23T13:30:59;16.30;99.90
17954;DHT22;9102;53.548;9.926;2022-10-23T13:33:31;16.30;99.90
17954;DHT22;9102;53.548;9.926;2022-10-23T13:36:00;16.30;99.90
17954;DHT22;9102;53.548;9.926;2022-10-23T13:38:28;16.40;99.90
17954;DHT22;9102;53.548;9.926;2022-10-23T13:40:56;16.40;99.90
17954;DHT22;9102;53.548;9.926;2022-10-23T13:43:26;16.40;99.90
17954;DHT22;9102;53.548;9.926;2022-10-23T13:45:55;16.40;99.90
17954;DHT22;9102;53.548;9.926;2022-10-23T13:48:22;16.30;99.90
17954;DHT22;9102;53.548;9.926;2022-10-23T13:50:49;16.30;99.90
17954;DHT22;9102;53.548;9.926;2022-10-23T13:53:16;16.30;99.90
17954;DHT22;9102;53.548;9.926;2022-10-23T13:55:45;16.30;99.90
17954;DHT22;9102;53.548;9.926;2022-10-23T13:58:13;16.30;99.90
17954;DHT22;9102;53.548;9.926;2022-10-23T14:00:41;16.30;99.90
17954;DHT22;9102;53.548;9.926;2022-10-23T14:03:09;16.40;99.90
17954;DHT22;9102;53.548;9.926;2022-10-23T14:05:36;16.20;99.90
17954;DHT22;9102;53.548;9.926;2022-10-23T14:08:03;16.30;99.90
17954;DHT22;9102;53.548;9.926;2022-10-23T14:10:30;16.30;99.90
17954;DHT22;9102;53.548;9.926;2022-10-23T14:12:57;16.10;99.90
17954;DHT22;9102;53.548;9.926;2022-10-23T14:15:23;16.10;99.90
17954;DHT22;9102;53.548;9.926;2022-10-23T14:17:51;16.10;99.90
17954;DHT22;9102;53.548;9.926;2022-10-23T14:20:18;16.10;99.90
17954;DHT22;9102;53.548;9.926;2022-10-23T14:22:45;16.10;99.90
17954;DHT22;9102;53.548;9.926;2022-10-23T14:25:12;16.00;99.90
17954;DHT22;9102;53.548;9.926;2022-10-23T14:27:39;16.00;99.90
17954;DHT22;9102;53.548;9.926;2022-10-23T14:30:07;16.00;99.90
17954;DHT22;9102;53.548;9.926;2022-10-23T14:32:33;16.00;99.90
17954;DHT22;9102;53.548;9.926;2022-10-23T14:35:02;16.00;99.90
17954;DHT22;9102;53.548;9.926;2022-10-23T14:37:29;16.00;99.90
17954;DHT22;9102;53.548;9.926;2022-10-23T14:39:56;15.90;99.90
17954;DHT22;9102;53.548;9.926;2022-10-23T14:42:23;15.90;99.90
17954;DHT22;9102;53.548;9.926;2022-10-23T14:44:50;15.90;99.90
17954;DHT22;9102;53.548;9.926;2022-10-23T14:47:17;15.90;99.90
17954;DHT22;9102;53.548;9.926;2022-10-23T14:49:47;15.90;99.90
17954;DHT22;9102;53.548;9.926;2022-10-23T14:52:18;16.00;99.90
17954;DHT22;9102;53.548;9.926;2022-10-23T14:54:45;15.90;99.90
17954;DHT22;9102;53.548;9.926;2022-10-23T14:57:12;15.80;99.90
17954;DHT22;9102;53.548;9.926;2022-10-23T14:59:41;15.90;99.90
17954;DHT22;9102;53.548;9.926;2022-10-23T15:02:09;15.90;99.90
17954;DHT22;9102;53.548;9.926;2022-10-23T15:04:36;15.80;99.90
17954;DHT22;9102;53.548;9.926;2022-10-23T15:07:03;15.80;99.90
17954;DHT22;9102;53.548;9.926;2022-10-23T15:09:32;15.80;99.90
17954;DHT22;9102;53.548;9.926;2022-10-23T15:12:01;15.90;99.90
17954;DHT22;9102;53.548;9.926;2022-10-23T15:14:28;15.70;99.90
17954;DHT22;9102;53.548;9.926;2022-10-23T15:16:55;15.80;99.90
17954;DHT22;9102;53.548;9.926;2022-10-23T15:19:21;15.70;99.90
17954;DHT22;9102;53.548;9.926;2022-10-23T15:21:48;15.80;99.90
17954;DHT22;9102;53.548;9.926;2022-10-23T15:24:16;15.70;99.90
17954;DHT22;9102;53.548;9.926;2022-10-23T15:26:46;15.70;99.90
17954;DHT22;9102;53.548;9.926;2022-10-23T15:29:14;15.70;99.90
17954;DHT22;9102;53.548;9.926;2022-10-23T15:31:44;15.70;99.90
17954;DHT22;9102;53.548;9.926;2022-10-23T15:34:13;15.70;99.90
17954;DHT22;9102;53.548;9.926;2022-10-23T15:36:40;15.70;99.90
17954;DHT22;9102;53.548;9.926;2022-10-23T15:39:07;15.60;99.90
17954;DHT22;9102;53.548;9.926;2022-10-23T15:41:36;15.60;99.90
17954;DHT22;9102;53.548;9.926;2022-10-23T15:44:06;15.60;99.90
17954;DHT22;9102;53.548;9.926;2022-10-23T15:46:33;15.50;99.90
17954;DHT22;9102;53.548;9.926;2022-10-23T15:49:00;15.50;99.90
17954;DHT22;9102;53.548;9.926;2022-10-23T15:51:27;15.40;99.90
17954;DHT22;9102;53.548;9.926;2022-10-23T15:53:54;15.40;99.90
17954;DHT22;9102;53.548;9.926;2022-10-23T15:56:21;15.40;99.90
17954;DHT22;9102;53.548;9.926;2022-10-23T15:58:48;15.40;99.90
17954;DHT22;9102;53.548;9.926;2022-10-23T16:01:17;15.20;99.90
17954;DHT22;9102;53.548;9.926;2022-10-23T16:03:44;15.30;99.90
17954;DHT22;9102;53.548;9.926;2022-10-23T16:06:13;15.30;99.90